sensor_id;sensor_type;location;lat;lon;timestamp;P1;durP1;ratioP1;P2;durP2;ratioP2
33190;SDS011;19554;42.652;23.364;2023-06-26T00:00:02;26.05;;;21.48;;
33190;SDS011;19554;42.652;23.364;2023-06-26T00:02:30;26.30;;;19.83;;
33190;SDS011;19554;42.652;23.364;2023-06-26T00:04:57;27.60;;;19.77;;
33190;SDS011;19554;42.652;23.364;2023-06-26T00:07:23;28.23;;;19.92;;
33190;SDS011;19554;42.652;23.364;2023-06-26T00:09:48;26.13;;;18.85;;
33190;SDS011;19554;42.652;23.364;2023-06-26T00:12:14;30.73;;;20.85;;
33190;SDS011;19554;42.652;23.364;2023-06-26T00:14:39;25.13;;;19.15;;
33190;SDS011;19554;42.652;23.364;2023-06-26T00:17:04;26.30;;;18.00;;
33190;SDS011;19554;42.652;23.364;2023-06-26T00:19:30;27.70;;;18.42;;
33190;SDS011;19554;42.652;23.364;2023-06-26T00:21:55;22.88;;;18.08;;
33190;SDS011;19554;42.652;23.364;2023-06-26T00:24:20;25.75;;;18.95;;
33190;SDS011;19554;42.652;23.364;2023-06-26T00:26:46;24.58;;;17.63;;
33190;SDS011;19554;42.652;23.364;2023-06-26T00:29:12;24.30;;;16.77;;
33190;SDS011;19554;42.652;23.364;2023-06-26T00:31:38;23.55;;;17.90;;
33190;SDS011;19554;42.652;23.364;2023-06-26T00:34:05;19.45;;;15.95;;
33190;SDS011;19554;42.652;23.364;2023-06-26T00:36:30;20.67;;;16.33;;
33190;SDS011;19554;42.652;23.364;2023-06-26T00:38:56;21.88;;;16.73;;
33190;SDS011;19554;42.652;23.364;2023-06-26T00:41:21;22.60;;;16.65;;
33190;SDS011;19554;42.652;23.364;2023-06-26T00:43:46;20.52;;;17.02;;
33190;SDS011;19554;42.652;23.364;2023-06-26T00:46:12;20.30;;;15.70;;
33190;SDS011;19554;42.652;23.364;2023-06-26T00:48:39;20.85;;;15.05;;
33190;SDS011;19554;42.652;23.364;2023-06-26T00:51:06;21.08;;;15.40;;
33190;SDS011;19554;42.652;23.364;2023-06-26T00:53:32;20.58;;;15.45;;
33190;SDS011;19554;42.652;23.364;2023-06-26T00:55:58;22.23;;;16.10;;
33190;SDS011;19554;42.652;23.364;2023-06-26T00:58:24;18.20;;;14.75;;
33190;SDS011;19554;42.652;23.364;2023-06-26T01:00:50;21.23;;;15.68;;
33190;SDS011;19554;42.652;23.364;2023-06-26T01:03:17;17.20;;;14.27;;
33190;SDS011;19554;42.652;23.364;2023-06-26T01:05:42;21.88;;;15.30;;
33190;SDS011;19554;42.652;23.364;2023-06-26T01:08:10;20.92;;;13.82;;
33190;SDS011;19554;42.652;23.364;2023-06-26T01:10:37;17.80;;;13.75;;
33190;SDS011;19554;42.652;23.364;2023-06-26T01:13:03;17.38;;;14.02;;
33190;SDS011;19554;42.652;23.364;2023-06-26T01:15:29;17.95;;;14.15;;
33190;SDS011;19554;42.652;23.364;2023-06-26T01:17:54;15.60;;;13.32;;
33190;SDS011;19554;42.652;23.364;2023-06-26T01:20:24;15.50;;;13.00;;
33190;SDS011;19554;42.652;23.364;2023-06-26T01:23:35;20.25;;;13.93;;
33190;SDS011;19554;42.652;23.364;2023-06-26T01:28:14;16.20;;;13.07;;
33190;SDS011;19554;42.652;23.364;2023-06-26T01:30:41;19.08;;;13.40;;
33190;SDS011;19554;42.652;23.364;2023-06-26T01:33:09;16.50;;;13.23;;
33190;SDS011;19554;42.652;23.364;2023-06-26T01:35:35;14.60;;;12.38;;
33190;SDS011;19554;42.652;23.364;2023-06-26T01:38:20;16.98;;;12.80;;
33190;SDS011;19554;42.652;23.364;2023-06-26T01:40:48;16.17;;;12.75;;
33190;SDS011;19554;42.652;23.364;2023-06-26T01:46:11;18.08;;;12.85;;
33190;SDS011;19554;42.652;23.364;2023-06-26T01:51:12;18.13;;;13.02;;
33190;SDS011;19554;42.652;23.364;2023-06-26T01:53:44;17.05;;;13.65;;
33190;SDS011;19554;42.652;23.364;2023-06-26T01:56:15;16.30;;;13.32;;
33190;SDS011;19554;42.652;23.364;2023-06-26T01:58:45;16.95;;;13.32;;
33190;SDS011;19554;42.652;23.364;2023-06-26T02:01:12;16.65;;;12.85;;
33190;SDS011;19554;42.652;23.364;2023-06-26T02:03:37;18.00;;;13.60;;
33190;SDS011;19554;42.652;23.364;2023-06-26T02:06:03;19.00;;;13.77;;
33190;SDS011;19554;42.652;23.364;2023-06-26T02:08:28;16.73;;;13.15;;
33190;SDS011;19554;42.652;23.364;2023-06-26T02:10:53;16.10;;;13.23;;
33190;SDS011;19554;42.652;23.364;2023-06-26T02:13:19;19.63;;;13.00;;
33190;SDS011;19554;42.652;23.364;2023-06-26T02:15:44;17.27;;;14.52;;
33190;SDS011;19554;42.652;23.364;2023-06-26T02:18:09;16.90;;;13.40;;
33190;SDS011;19554;42.652;23.364;2023-06-26T02:20:35;18.48;;;14.55;;
33190;SDS011;19554;42.652;23.364;2023-06-26T02:23:00;19.02;;;14.20;;
33190;SDS011;19554;42.652;23.364;2023-06-26T02:25:26;17.08;;;15.00;;
33190;SDS011;19554;42.652;23.364;2023-06-26T02:27:51;17.95;;;14.13;;
33190;SDS011;19554;42.652;23.364;2023-06-26T02:30:17;19.95;;;14.40;;
33190;SDS011;19554;42.652;23.364;2023-06-26T02:32:42;17.13;;;13.98;;
33190;SDS011;19554;42.652;23.364;2023-06-26T02:35:08;23.83;;;14.15;;
33190;SDS011;19554;42.652;23.364;2023-06-26T02:37:33;16.52;;;14.07;;
33190;SDS011;19554;42.652;23.364;2023-06-26T02:39:59;20.05;;;14.18;;
33190;SDS011;19554;42.652;23.364;2023-06-26T02:42:24;23.65;;;16.00;;
33190;SDS011;19554;42.652;23.364;2023-06-26T02:44:50;16.13;;;14.23;;
33190;SDS011;19554;42.652;23.364;2023-06-26T02:47:15;18.42;;;15.82;;
33190;SDS011;19554;42.652;23.364;2023-06-26T02:49:40;22.45;;;17.90;;
33190;SDS011;19554;42.652;23.364;2023-06-26T02:52:06;22.60;;;16.60;;
33190;SDS011;19554;42.652;23.364;2023-06-26T02:54:31;21.30;;;17.58;;
33190;SDS011;19554;42.652;23.364;2023-06-26T02:56:57;21.83;;;18.05;;
33190;SDS011;19554;42.652;23.364;2023-06-26T02:59:24;19.92;;;16.50;;
33190;SDS011;19554;42.652;23.364;2023-06-26T03:01:49;21.08;;;17.98;;
33190;SDS011;19554;42.652;23.364;2023-06-26T03:04:15;21.75;;;17.42;;
33190;SDS011;19554;42.652;23.364;2023-06-26T03:06:42;22.60;;;17.90;;
33190;SDS011;19554;42.652;23.364;2023-06-26T03:09:08;22.05;;;17.33;;
33190;SDS011;19554;42.652;23.364;2023-06-26T03:11:33;22.02;;;19.02;;
33190;SDS011;19554;42.652;23.364;2023-06-26T03:13:59;22.10;;;18.10;;
33190;SDS011;19554;42.652;23.364;2023-06-26T03:16:24;21.05;;;18.80;;
33190;SDS011;19554;42.652;23.364;2023-06-26T03:18:49;23.83;;;17.45;;
33190;SDS011;19554;42.652;23.364;2023-06-26T03:21:15;28.35;;;18.13;;
33190;SDS011;19554;42.652;23.364;2023-06-26T03:23:40;23.00;;;18.48;;
33190;SDS011;19554;42.652;23.364;2023-06-26T03:26:06;20.48;;;17.48;;
33190;SDS011;19554;42.652;23.364;2023-06-26T03:28:31;23.92;;;17.95;;
33190;SDS011;19554;42.652;23.364;2023-06-26T03:30:57;21.05;;;17.92;;
33190;SDS011;19554;42.652;23.364;2023-06-26T03:33:22;21.20;;;17.30;;
33190;SDS011;19554;42.652;23.364;2023-06-26T03:35:47;20.67;;;18.48;;
33190;SDS011;19554;42.652;23.364;2023-06-26T03:38:13;23.42;;;18.20;;
33190;SDS011;19554;42.652;23.364;2023-06-26T03:40:38;22.02;;;17.75;;
33190;SDS011;19554;42.652;23.364;2023-06-26T03:43:04;20.88;;;17.77;;
33190;SDS011;19554;42.652;23.364;2023-06-26T03:45:29;18.83;;;16.83;;
33190;SDS011;19554;42.652;23.364;2023-06-26T03:47:54;23.38;;;18.10;;
33190;SDS011;19554;42.652;23.364;2023-06-26T03:50:20;20.88;;;18.30;;
33190;SDS011;19554;42.652;23.364;2023-06-26T03:52:45;23.33;;;19.33;;
33190;SDS011;19554;42.652;23.364;2023-06-26T03:55:10;22.80;;;18.25;;
33190;SDS011;19554;42.652;23.364;2023-06-26T03:57:36;21.63;;;18.67;;
33190;SDS011;19554;42.652;23.364;2023-06-26T04:00:02;20.55;;;18.42;;
33190;SDS011;19554;42.652;23.364;2023-06-26T04:02:33;24.55;;;18.90;;
33190;SDS011;19554;42.652;23.364;2023-06-26T04:04:59;23.23;;;18.40;;
33190;SDS011;19554;42.652;23.364;2023-06-26T04:07:25;22.35;;;18.90;;
33190;SDS011;19554;42.652;23.364;2023-06-26T04:09:50;23.23;;;19.35;;
33190;SDS011;19554;42.652;23.364;2023-06-26T04:12:16;20.02;;;17.92;;
33190;SDS011;19554;42.652;23.364;2023-06-26T04:14:41;20.13;;;17.15;;
33190;SDS011;19554;42.652;23.364;2023-06-26T04:17:07;20.77;;;17.58;;
33190;SDS011;19554;42.652;23.364;2023-06-26T04:19:32;23.15;;;15.45;;
33190;SDS011;19554;42.652;23.364;2023-06-26T04:21:57;16.80;;;14.98;;
33190;SDS011;19554;42.652;23.364;2023-06-26T04:24:23;18.60;;;15.30;;
33190;SDS011;19554;42.652;23.364;2023-06-26T04:26:48;20.38;;;16.08;;
33190;SDS011;19554;42.652;23.364;2023-06-26T04:29:14;23.98;;;15.30;;
33190;SDS011;19554;42.652;23.364;2023-06-26T04:31:39;20.20;;;15.82;;
33190;SDS011;19554;42.652;23.364;2023-06-26T04:34:05;17.67;;;15.65;;
33190;SDS011;19554;42.652;23.364;2023-06-26T04:36:30;16.67;;;14.88;;
33190;SDS011;19554;42.652;23.364;2023-06-26T04:38:58;16.42;;;14.68;;
33190;SDS011;19554;42.652;23.364;2023-06-26T04:41:24;19.48;;;15.25;;
33190;SDS011;19554;42.652;23.364;2023-06-26T04:43:50;19.45;;;16.55;;
33190;SDS011;19554;42.652;23.364;2023-06-26T04:46:16;22.42;;;15.95;;
33190;SDS011;19554;42.652;23.364;2023-06-26T04:48:41;16.77;;;14.82;;
33190;SDS011;19554;42.652;23.364;2023-06-26T04:51:09;17.73;;;14.68;;
33190;SDS011;19554;42.652;23.364;2023-06-26T04:53:35;20.27;;;15.68;;
33190;SDS011;19554;42.652;23.364;2023-06-26T04:56:00;23.20;;;15.50;;
33190;SDS011;19554;42.652;23.364;2023-06-26T04:58:25;18.95;;;15.10;;
33190;SDS011;19554;42.652;23.364;2023-06-26T05:00:51;20.63;;;16.05;;
33190;SDS011;19554;42.652;23.364;2023-06-26T05:03:17;19.65;;;17.15;;
33190;SDS011;19554;42.652;23.364;2023-06-26T05:05:43;20.67;;;16.75;;
33190;SDS011;19554;42.652;23.364;2023-06-26T05:08:18;19.05;;;16.52;;
33190;SDS011;19554;42.652;23.364;2023-06-26T05:10:46;21.55;;;18.63;;
33190;SDS011;19554;42.652;23.364;2023-06-26T05:13:11;20.63;;;17.48;;
33190;SDS011;19554;42.652;23.364;2023-06-26T05:15:40;20.05;;;16.88;;
33190;SDS011;19554;42.652;23.364;2023-06-26T05:18:05;22.77;;;16.52;;
33190;SDS011;19554;42.652;23.364;2023-06-26T05:20:31;18.85;;;16.85;;
33190;SDS011;19554;42.652;23.364;2023-06-26T05:22:57;20.20;;;17.52;;
33190;SDS011;19554;42.652;23.364;2023-06-26T05:25:23;23.60;;;16.67;;
33190;SDS011;19554;42.652;23.364;2023-06-26T05:27:49;20.20;;;16.95;;
33190;SDS011;19554;42.652;23.364;2023-06-26T05:30:15;20.35;;;16.58;;
33190;SDS011;19554;42.652;23.364;2023-06-26T05:32:41;21.75;;;16.67;;
33190;SDS011;19554;42.652;23.364;2023-06-26T05:35:09;20.55;;;16.52;;
33190;SDS011;19554;42.652;23.364;2023-06-26T05:37:36;25.05;;;17.00;;
33190;SDS011;19554;42.652;23.364;2023-06-26T05:40:01;22.63;;;16.85;;
33190;SDS011;19554;42.652;23.364;2023-06-26T05:42:29;22.92;;;17.50;;
33190;SDS011;19554;42.652;23.364;2023-06-26T05:44:55;20.45;;;17.13;;
33190;SDS011;19554;42.652;23.364;2023-06-26T05:47:20;23.33;;;16.52;;
33190;SDS011;19554;42.652;23.364;2023-06-26T05:49:46;18.67;;;14.95;;
33190;SDS011;19554;42.652;23.364;2023-06-26T05:52:11;18.75;;;15.57;;
33190;SDS011;19554;42.652;23.364;2023-06-26T05:54:37;17.05;;;15.25;;
33190;SDS011;19554;42.652;23.364;2023-06-26T05:57:03;20.08;;;16.63;;
33190;SDS011;19554;42.652;23.364;2023-06-26T05:59:30;18.00;;;16.10;;
33190;SDS011;19554;42.652;23.364;2023-06-26T06:01:56;20.75;;;16.00;;
33190;SDS011;19554;42.652;23.364;2023-06-26T06:04:22;21.50;;;16.90;;
33190;SDS011;19554;42.652;23.364;2023-06-26T06:06:47;19.80;;;17.30;;
33190;SDS011;19554;42.652;23.364;2023-06-26T06:09:13;18.73;;;16.55;;
33190;SDS011;19554;42.652;23.364;2023-06-26T06:11:38;18.02;;;15.23;;
33190;SDS011;19554;42.652;23.364;2023-06-26T06:14:03;21.58;;;16.33;;
33190;SDS011;19554;42.652;23.364;2023-06-26T06:16:29;23.67;;;15.82;;
33190;SDS011;19554;42.652;23.364;2023-06-26T06:18:55;17.52;;;15.45;;
33190;SDS011;19554;42.652;23.364;2023-06-26T06:21:20;19.23;;;14.73;;
33190;SDS011;19554;42.652;23.364;2023-06-26T06:23:46;20.95;;;15.68;;
33190;SDS011;19554;42.652;23.364;2023-06-26T06:26:11;17.25;;;15.38;;
33190;SDS011;19554;42.652;23.364;2023-06-26T06:28:38;17.50;;;14.38;;
33190;SDS011;19554;42.652;23.364;2023-06-26T06:31:04;18.23;;;14.48;;
33190;SDS011;19554;42.652;23.364;2023-06-26T06:33:29;19.98;;;15.60;;
33190;SDS011;19554;42.652;23.364;2023-06-26T06:35:54;21.23;;;14.88;;
33190;SDS011;19554;42.652;23.364;2023-06-26T06:38:20;16.40;;;14.65;;
33190;SDS011;19554;42.652;23.364;2023-06-26T06:40:45;18.75;;;14.95;;
33190;SDS011;19554;42.652;23.364;2023-06-26T06:43:11;21.63;;;16.90;;
33190;SDS011;19554;42.652;23.364;2023-06-26T06:45:36;20.00;;;15.63;;
33190;SDS011;19554;42.652;23.364;2023-06-26T06:48:03;16.58;;;13.85;;
33190;SDS011;19554;42.652;23.364;2023-06-26T06:50:28;22.88;;;15.20;;
33190;SDS011;19554;42.652;23.364;2023-06-26T06:52:54;28.50;;;15.95;;
33190;SDS011;19554;42.652;23.364;2023-06-26T06:55:19;18.00;;;13.52;;
33190;SDS011;19554;42.652;23.364;2023-06-26T06:57:45;19.48;;;13.27;;
33190;SDS011;19554;42.652;23.364;2023-06-26T07:00:11;21.50;;;14.38;;
33190;SDS011;19554;42.652;23.364;2023-06-26T07:02:37;16.02;;;12.32;;
33190;SDS011;19554;42.652;23.364;2023-06-26T07:05:04;17.00;;;13.63;;
33190;SDS011;19554;42.652;23.364;2023-06-26T07:07:30;15.05;;;12.20;;
33190;SDS011;19554;42.652;23.364;2023-06-26T07:10:00;16.88;;;10.52;;
33190;SDS011;19554;42.652;23.364;2023-06-26T07:12:27;15.73;;;10.75;;
33190;SDS011;19554;42.652;23.364;2023-06-26T07:14:53;12.07;;;9.25;;
33190;SDS011;19554;42.652;23.364;2023-06-26T07:17:20;10.98;;;9.23;;
33190;SDS011;19554;42.652;23.364;2023-06-26T07:19:46;11.88;;;10.35;;
33190;SDS011;19554;42.652;23.364;2023-06-26T07:22:11;13.10;;;9.40;;
33190;SDS011;19554;42.652;23.364;2023-06-26T07:24:37;12.75;;;9.10;;
33190;SDS011;19554;42.652;23.364;2023-06-26T07:27:02;15.68;;;11.07;;
33190;SDS011;19554;42.652;23.364;2023-06-26T07:29:28;17.05;;;11.50;;
33190;SDS011;19554;42.652;23.364;2023-06-26T07:31:53;12.43;;;9.75;;
33190;SDS011;19554;42.652;23.364;2023-06-26T07:34:19;14.32;;;10.70;;
33190;SDS011;19554;42.652;23.364;2023-06-26T07:36:44;12.15;;;9.43;;
33190;SDS011;19554;42.652;23.364;2023-06-26T07:39:10;12.82;;;8.90;;
33190;SDS011;19554;42.652;23.364;2023-06-26T07:41:35;9.50;;;7.80;;
33190;SDS011;19554;42.652;23.364;2023-06-26T07:44:00;11.32;;;7.88;;
33190;SDS011;19554;42.652;23.364;2023-06-26T07:46:26;10.55;;;8.00;;
33190;SDS011;19554;42.652;23.364;2023-06-26T07:48:51;10.88;;;7.53;;
33190;SDS011;19554;42.652;23.364;2023-06-26T07:51:17;14.05;;;8.57;;
33190;SDS011;19554;42.652;23.364;2023-06-26T07:53:42;8.65;;;7.53;;
33190;SDS011;19554;42.652;23.364;2023-06-26T07:56:08;10.77;;;8.27;;
33190;SDS011;19554;42.652;23.364;2023-06-26T07:58:33;8.77;;;7.70;;
33190;SDS011;19554;42.652;23.364;2023-06-26T08:00:59;9.70;;;8.75;;
33190;SDS011;19554;42.652;23.364;2023-06-26T08:03:24;9.88;;;7.70;;
33190;SDS011;19554;42.652;23.364;2023-06-26T08:05:49;11.95;;;7.32;;
33190;SDS011;19554;42.652;23.364;2023-06-26T08:08:15;10.18;;;7.13;;
33190;SDS011;19554;42.652;23.364;2023-06-26T08:10:40;7.53;;;6.75;;
33190;SDS011;19554;42.652;23.364;2023-06-26T08:13:06;9.57;;;7.28;;
33190;SDS011;19554;42.652;23.364;2023-06-26T08:15:31;8.90;;;7.78;;
33190;SDS011;19554;42.652;23.364;2023-06-26T08:17:56;8.23;;;6.78;;
33190;SDS011;19554;42.652;23.364;2023-06-26T08:20:22;12.57;;;8.00;;
33190;SDS011;19554;42.652;23.364;2023-06-26T08:22:48;9.48;;;7.63;;
33190;SDS011;19554;42.652;23.364;2023-06-26T08:25:15;7.93;;;6.78;;
33190;SDS011;19554;42.652;23.364;2023-06-26T08:27:41;10.05;;;7.07;;
33190;SDS011;19554;42.652;23.364;2023-06-26T08:30:06;16.85;;;7.88;;
33190;SDS011;19554;42.652;23.364;2023-06-26T08:32:32;28.33;;;10.00;;
33190;SDS011;19554;42.652;23.364;2023-06-26T08:34:57;21.75;;;9.88;;
33190;SDS011;19554;42.652;23.364;2023-06-26T08:37:22;18.30;;;9.85;;
33190;SDS011;19554;42.652;23.364;2023-06-26T08:39:48;32.30;;;13.23;;
33190;SDS011;19554;42.652;23.364;2023-06-26T08:42:13;24.80;;;11.52;;
33190;SDS011;19554;42.652;23.364;2023-06-26T08:44:39;10.75;;;6.95;;
33190;SDS011;19554;42.652;23.364;2023-06-26T08:47:04;16.83;;;8.30;;
33190;SDS011;19554;42.652;23.364;2023-06-26T08:49:34;9.90;;;8.23;;
33190;SDS011;19554;42.652;23.364;2023-06-26T08:52:20;12.48;;;8.10;;
33190;SDS011;19554;42.652;23.364;2023-06-26T08:54:49;9.50;;;7.95;;
33190;SDS011;19554;42.652;23.364;2023-06-26T08:57:23;12.80;;;6.70;;
33190;SDS011;19554;42.652;23.364;2023-06-26T08:59:51;8.15;;;6.85;;
33190;SDS011;19554;42.652;23.364;2023-06-26T09:02:17;9.52;;;6.50;;
33190;SDS011;19554;42.652;23.364;2023-06-26T09:04:43;8.50;;;6.95;;
33190;SDS011;19554;42.652;23.364;2023-06-26T09:07:08;6.75;;;5.97;;
33190;SDS011;19554;42.652;23.364;2023-06-26T09:09:34;9.15;;;7.05;;
33190;SDS011;19554;42.652;23.364;2023-06-26T09:12:01;13.95;;;6.32;;
33190;SDS011;19554;42.652;23.364;2023-06-26T09:14:28;8.07;;;7.28;;
33190;SDS011;19554;42.652;23.364;2023-06-26T09:16:54;7.93;;;6.40;;
33190;SDS011;19554;42.652;23.364;2023-06-26T09:19:20;13.25;;;7.07;;
33190;SDS011;19554;42.652;23.364;2023-06-26T09:21:45;7.55;;;6.78;;
33190;SDS011;19554;42.652;23.364;2023-06-26T09:24:14;8.60;;;7.18;;
33190;SDS011;19554;42.652;23.364;2023-06-26T09:26:41;7.93;;;6.10;;
33190;SDS011;19554;42.652;23.364;2023-06-26T09:29:07;9.82;;;6.13;;
33190;SDS011;19554;42.652;23.364;2023-06-26T09:31:35;9.65;;;6.63;;
33190;SDS011;19554;42.652;23.364;2023-06-26T09:34:02;9.02;;;5.88;;
33190;SDS011;19554;42.652;23.364;2023-06-26T09:36:28;6.70;;;5.45;;
33190;SDS011;19554;42.652;23.364;2023-06-26T09:38:58;7.57;;;5.97;;
33190;SDS011;19554;42.652;23.364;2023-06-26T09:41:28;8.77;;;5.90;;
33190;SDS011;19554;42.652;23.364;2023-06-26T09:43:53;10.85;;;6.13;;
33190;SDS011;19554;42.652;23.364;2023-06-26T09:46:26;11.10;;;5.57;;
33190;SDS011;19554;42.652;23.364;2023-06-26T09:49:03;7.78;;;6.60;;
33190;SDS011;19554;42.652;23.364;2023-06-26T09:51:34;7.45;;;6.43;;
33190;SDS011;19554;42.652;23.364;2023-06-26T09:54:01;10.80;;;6.18;;
33190;SDS011;19554;42.652;23.364;2023-06-26T09:56:28;10.40;;;6.55;;
33190;SDS011;19554;42.652;23.364;2023-06-26T09:58:58;9.98;;;7.38;;
33190;SDS011;19554;42.652;23.364;2023-06-26T10:01:28;12.98;;;6.53;;
33190;SDS011;19554;42.652;23.364;2023-06-26T10:03:54;10.23;;;7.07;;
33190;SDS011;19554;42.652;23.364;2023-06-26T10:06:24;7.20;;;6.28;;
33190;SDS011;19554;42.652;23.364;2023-06-26T10:08:54;8.18;;;7.10;;
33190;SDS011;19554;42.652;23.364;2023-06-26T10:11:21;6.63;;;5.95;;
33190;SDS011;19554;42.652;23.364;2023-06-26T10:13:49;7.38;;;6.35;;
33190;SDS011;19554;42.652;23.364;2023-06-26T10:16:23;12.05;;;7.13;;
33190;SDS011;19554;42.652;23.364;2023-06-26T10:18:53;8.15;;;6.43;;
33190;SDS011;19554;42.652;23.364;2023-06-26T10:21:21;7.40;;;6.32;;
33190;SDS011;19554;42.652;23.364;2023-06-26T10:23:48;9.60;;;7.07;;
33190;SDS011;19554;42.652;23.364;2023-06-26T10:26:15;8.48;;;6.68;;
33190;SDS011;19554;42.652;23.364;2023-06-26T10:28:42;8.43;;;7.10;;
33190;SDS011;19554;42.652;23.364;2023-06-26T10:31:10;8.57;;;7.10;;
33190;SDS011;19554;42.652;23.364;2023-06-26T10:33:37;8.13;;;6.05;;
33190;SDS011;19554;42.652;23.364;2023-06-26T10:36:16;9.75;;;6.75;;
33190;SDS011;19554;42.652;23.364;2023-06-26T10:41:40;8.88;;;6.95;;
33190;SDS011;19554;42.652;23.364;2023-06-26T10:44:10;9.52;;;6.25;;
33190;SDS011;19554;42.652;23.364;2023-06-26T10:46:48;10.75;;;7.40;;
33190;SDS011;19554;42.652;23.364;2023-06-26T10:49:15;9.18;;;6.85;;
33190;SDS011;19554;42.652;23.364;2023-06-26T10:51:48;9.98;;;6.97;;
33190;SDS011;19554;42.652;23.364;2023-06-26T10:54:18;9.48;;;7.40;;
33190;SDS011;19554;42.652;23.364;2023-06-26T10:56:48;10.75;;;6.53;;
33190;SDS011;19554;42.652;23.364;2023-06-26T10:59:21;8.45;;;7.03;;
33190;SDS011;19554;42.652;23.364;2023-06-26T11:01:59;12.13;;;7.10;;
33190;SDS011;19554;42.652;23.364;2023-06-26T11:04:43;8.70;;;6.38;;
33190;SDS011;19554;42.652;23.364;2023-06-26T11:09:55;9.60;;;6.90;;
33190;SDS011;19554;42.652;23.364;2023-06-26T11:15:16;9.07;;;7.18;;
33190;SDS011;19554;42.652;23.364;2023-06-26T11:17:43;8.65;;;7.00;;
33190;SDS011;19554;42.652;23.364;2023-06-26T11:20:10;8.55;;;6.20;;
33190;SDS011;19554;42.652;23.364;2023-06-26T11:22:37;9.02;;;6.28;;
33190;SDS011;19554;42.652;23.364;2023-06-26T11:25:04;8.77;;;5.82;;
33190;SDS011;19554;42.652;23.364;2023-06-26T11:27:42;8.95;;;6.50;;
33190;SDS011;19554;42.652;23.364;2023-06-26T11:30:09;7.22;;;6.28;;
33190;SDS011;19554;42.652;23.364;2023-06-26T11:32:37;11.57;;;6.70;;
33190;SDS011;19554;42.652;23.364;2023-06-26T11:35:03;10.57;;;7.35;;
33190;SDS011;19554;42.652;23.364;2023-06-26T11:37:32;11.57;;;7.10;;
33190;SDS011;19554;42.652;23.364;2023-06-26T11:39:58;12.18;;;7.03;;
33190;SDS011;19554;42.652;23.364;2023-06-26T11:42:24;9.48;;;6.50;;
33190;SDS011;19554;42.652;23.364;2023-06-26T11:44:50;9.40;;;6.60;;
33190;SDS011;19554;42.652;23.364;2023-06-26T11:47:18;8.38;;;6.47;;
33190;SDS011;19554;42.652;23.364;2023-06-26T11:49:45;7.75;;;6.45;;
33190;SDS011;19554;42.652;23.364;2023-06-26T11:52:11;8.18;;;5.95;;
33190;SDS011;19554;42.652;23.364;2023-06-26T11:54:37;10.02;;;6.78;;
33190;SDS011;19554;42.652;23.364;2023-06-26T11:57:04;8.63;;;7.47;;
33190;SDS011;19554;42.652;23.364;2023-06-26T11:59:38;7.95;;;6.32;;
33190;SDS011;19554;42.652;23.364;2023-06-26T12:02:09;8.18;;;6.28;;
33190;SDS011;19554;42.652;23.364;2023-06-26T12:04:36;9.23;;;6.63;;
33190;SDS011;19554;42.652;23.364;2023-06-26T12:07:04;14.13;;;8.30;;
33190;SDS011;19554;42.652;23.364;2023-06-26T12:09:32;12.88;;;7.70;;
33190;SDS011;19554;42.652;23.364;2023-06-26T12:12:00;10.48;;;6.75;;
33190;SDS011;19554;42.652;23.364;2023-06-26T12:14:26;9.90;;;7.78;;
33190;SDS011;19554;42.652;23.364;2023-06-26T12:16:55;10.30;;;6.80;;
33190;SDS011;19554;42.652;23.364;2023-06-26T12:19:24;10.07;;;7.53;;
33190;SDS011;19554;42.652;23.364;2023-06-26T12:21:53;11.85;;;6.38;;
33190;SDS011;19554;42.652;23.364;2023-06-26T12:24:21;9.02;;;6.78;;
33190;SDS011;19554;42.652;23.364;2023-06-26T12:26:51;7.22;;;6.47;;
33190;SDS011;19554;42.652;23.364;2023-06-26T12:29:19;9.90;;;7.20;;
33190;SDS011;19554;42.652;23.364;2023-06-26T12:31:48;9.77;;;7.18;;
33190;SDS011;19554;42.652;23.364;2023-06-26T12:34:17;11.60;;;6.90;;
33190;SDS011;19554;42.652;23.364;2023-06-26T12:36:49;9.02;;;5.80;;
33190;SDS011;19554;42.652;23.364;2023-06-26T12:39:17;21.63;;;6.50;;
33190;SDS011;19554;42.652;23.364;2023-06-26T12:41:51;6.95;;;6.05;;
33190;SDS011;19554;42.652;23.364;2023-06-26T12:46:50;7.93;;;5.50;;
33190;SDS011;19554;42.652;23.364;2023-06-26T12:49:19;7.72;;;6.20;;
33190;SDS011;19554;42.652;23.364;2023-06-26T12:51:45;6.72;;;5.95;;
33190;SDS011;19554;42.652;23.364;2023-06-26T12:54:10;12.52;;;8.10;;
33190;SDS011;19554;42.652;23.364;2023-06-26T12:56:36;9.00;;;6.75;;
33190;SDS011;19554;42.652;23.364;2023-06-26T12:59:01;11.32;;;7.70;;
33190;SDS011;19554;42.652;23.364;2023-06-26T13:01:27;13.02;;;7.80;;
33190;SDS011;19554;42.652;23.364;2023-06-26T13:03:53;9.38;;;7.80;;
33190;SDS011;19554;42.652;23.364;2023-06-26T13:06:18;9.52;;;6.93;;
33190;SDS011;19554;42.652;23.364;2023-06-26T13:08:44;9.60;;;7.03;;
33190;SDS011;19554;42.652;23.364;2023-06-26T13:11:16;11.93;;;8.27;;
33190;SDS011;19554;42.652;23.364;2023-06-26T13:13:42;7.82;;;7.00;;
33190;SDS011;19554;42.652;23.364;2023-06-26T13:16:07;8.27;;;7.35;;
33190;SDS011;19554;42.652;23.364;2023-06-26T13:18:33;10.57;;;7.72;;
33190;SDS011;19554;42.652;23.364;2023-06-26T13:20:58;9.45;;;7.75;;
33190;SDS011;19554;42.652;23.364;2023-06-26T13:23:24;14.57;;;8.40;;
33190;SDS011;19554;42.652;23.364;2023-06-26T13:25:49;9.57;;;7.32;;
33190;SDS011;19554;42.652;23.364;2023-06-26T13:28:15;11.13;;;7.15;;
33190;SDS011;19554;42.652;23.364;2023-06-26T13:30:41;12.93;;;7.55;;
33190;SDS011;19554;42.652;23.364;2023-06-26T13:33:06;7.78;;;6.95;;
33190;SDS011;19554;42.652;23.364;2023-06-26T13:35:31;8.27;;;6.93;;
33190;SDS011;19554;42.652;23.364;2023-06-26T13:37:57;9.18;;;7.38;;
33190;SDS011;19554;42.652;23.364;2023-06-26T13:40:22;8.10;;;6.70;;
33190;SDS011;19554;42.652;23.364;2023-06-26T13:42:47;11.05;;;7.60;;
33190;SDS011;19554;42.652;23.364;2023-06-26T13:45:13;8.52;;;6.95;;
33190;SDS011;19554;42.652;23.364;2023-06-26T13:47:38;9.95;;;6.47;;
33190;SDS011;19554;42.652;23.364;2023-06-26T13:50:06;8.30;;;7.32;;
33190;SDS011;19554;42.652;23.364;2023-06-26T13:52:35;11.02;;;6.90;;
33190;SDS011;19554;42.652;23.364;2023-06-26T13:55:01;11.52;;;6.30;;
33190;SDS011;19554;42.652;23.364;2023-06-26T13:57:30;9.32;;;6.93;;
33190;SDS011;19554;42.652;23.364;2023-06-26T13:59:56;8.25;;;6.70;;
33190;SDS011;19554;42.652;23.364;2023-06-26T14:02:21;7.68;;;6.40;;
33190;SDS011;19554;42.652;23.364;2023-06-26T14:04:47;8.93;;;6.88;;
33190;SDS011;19554;42.652;23.364;2023-06-26T14:07:12;10.48;;;6.95;;
33190;SDS011;19554;42.652;23.364;2023-06-26T14:09:38;10.45;;;7.32;;
33190;SDS011;19554;42.652;23.364;2023-06-26T14:12:04;7.95;;;6.90;;
33190;SDS011;19554;42.652;23.364;2023-06-26T14:14:29;8.40;;;7.15;;
33190;SDS011;19554;42.652;23.364;2023-06-26T14:16:55;14.30;;;8.05;;
33190;SDS011;19554;42.652;23.364;2023-06-26T14:19:20;9.38;;;7.15;;
33190;SDS011;19554;42.652;23.364;2023-06-26T14:21:45;9.13;;;6.65;;
33190;SDS011;19554;42.652;23.364;2023-06-26T14:24:11;10.30;;;7.10;;
33190;SDS011;19554;42.652;23.364;2023-06-26T14:26:36;7.97;;;7.18;;
33190;SDS011;19554;42.652;23.364;2023-06-26T14:29:02;8.98;;;6.82;;
33190;SDS011;19554;42.652;23.364;2023-06-26T14:31:27;8.10;;;7.00;;
33190;SDS011;19554;42.652;23.364;2023-06-26T14:33:53;9.38;;;6.60;;